Gambell Airport Gambell US
ICAO: PAGM
IATA:
Category: Medium
Scheduled Services:

Elevation: 27 ft
TransAlt. 0 ft.

Airport Communications:
AWOS 3:125.9
ANCHORAGE CNTR:132.2
CTAF:122.7
NOME RDO:122
TWEB:36.9

PAGM Zoom In..

If you have problems with the map follow the link
https://www.worldairports.se/pages/airport.php?
ICAO=PAGM

Runways:

(A) RW 16 length 4499 ft width 96 ft
---- / hdg 160

(B) RW 34 length 4499 ft width 96 ft
---- / hdg 340

Location; PAGM
Day. 16 / Time. 02.56 Zulu
* Altimeter: 29.93
* Temperature: 00° c. 32°f.
* Wind from: 060° Speed 29 kn with Gusts up to 36 kn.
Dewpoint: -01° c.
Visibility: 1 m.
Clouds: Broken 700 ft.
Clouds: Overcast 1100 ft.
Conditions: Light Snow.Conditions: Mist.

PAGM 160256Z AUTO 06029G36KT 1 3/4SM -SN BR BKN007 OVC011 00/M01 A2993 RMK AO2 PK WND 06036/0255 SLP141 P0000 60000 T00001011 56025 FZRANO


Wind From 060°
Speed 29 kn.

 
 
jpsmedia.com for Web Design worldairports.se 2018   terms of use